sensor_id;sensor_type;location;lat;lon;timestamp;pressure;altitude;pressure_sealevel;temperature;humidity
21401;BME280;18038;50.166;18.908;2024-01-30T00:02:51;99776.44;;;0.60;74.64
21401;BME280;18038;50.166;18.908;2024-01-30T00:06:37;99767.81;;;0.58;74.86
21401;BME280;18038;50.166;18.908;2024-01-30T00:10:24;99761.72;;;0.58;74.61
21401;BME280;18038;50.166;18.908;2024-01-30T00:14:13;99761.47;;;0.62;74.68
21401;BME280;18038;50.166;18.908;2024-01-30T00:18:01;99760.47;;;0.65;74.03
21401;BME280;18038;50.166;18.908;2024-01-30T00:21:47;99766.09;;;0.74;73.73
21401;BME280;18038;50.166;18.908;2024-01-30T00:25:34;99766.09;;;0.74;73.66
21401;BME280;18038;50.166;18.908;2024-01-30T00:29:23;99768.53;;;0.77;73.54
21401;BME280;18038;50.166;18.908;2024-01-30T00:33:11;99771.09;;;0.79;73.44
21401;BME280;18038;50.166;18.908;2024-01-30T00:36:58;99759.78;;;0.78;73.33
21401;BME280;18038;50.166;18.908;2024-01-30T00:40:45;99762.22;;;0.82;73.37
21401;BME280;18038;50.166;18.908;2024-01-30T00:44:34;99766.88;;;0.76;73.37
21401;BME280;18038;50.166;18.908;2024-01-30T00:48:22;99766.25;;;0.71;73.50
21401;BME280;18038;50.166;18.908;2024-01-30T00:52:08;99760.38;;;0.66;73.63
21401;BME280;18038;50.166;18.908;2024-01-30T00:55:55;99752.44;;;0.68;73.49
21401;BME280;18038;50.166;18.908;2024-01-30T00:59:44;99749.97;;;0.65;73.39
21401;BME280;18038;50.166;18.908;2024-01-30T01:03:34;99743.81;;;0.66;73.24
21401;BME280;18038;50.166;18.908;2024-01-30T01:07:20;99745.50;;;0.67;73.00
21401;BME280;18038;50.166;18.908;2024-01-30T01:11:07;99740.41;;;0.64;72.92
21401;BME280;18038;50.166;18.908;2024-01-30T01:14:56;99736.19;;;0.61;73.27
21401;BME280;18038;50.166;18.908;2024-01-30T01:18:43;99735.22;;;0.62;73.42
21401;BME280;18038;50.166;18.908;2024-01-30T01:22:30;99731.72;;;0.63;73.28
21401;BME280;18038;50.166;18.908;2024-01-30T01:26:18;99725.53;;;0.64;73.07
21401;BME280;18038;50.166;18.908;2024-01-30T01:30:08;99716.97;;;0.61;73.20
21401;BME280;18038;50.166;18.908;2024-01-30T01:33:59;99711.97;;;0.56;73.54
21401;BME280;18038;50.166;18.908;2024-01-30T01:37:45;99717.38;;;0.53;73.78
21401;BME280;18038;50.166;18.908;2024-01-30T01:41:33;99711.28;;;0.52;73.70
21401;BME280;18038;50.166;18.908;2024-01-30T01:45:23;99721.22;;;0.46;73.78
21401;BME280;18038;50.166;18.908;2024-01-30T01:49:10;99722.78;;;0.50;73.79
21401;BME280;18038;50.166;18.908;2024-01-30T01:52:58;99716.13;;;0.43;73.98
21401;BME280;18038;50.166;18.908;2024-01-30T01:56:47;99714.59;;;0.39;74.11
21401;BME280;18038;50.166;18.908;2024-01-30T02:00:36;99721.53;;;0.40;74.42
21401;BME280;18038;50.166;18.908;2024-01-30T02:04:24;99718.81;;;0.41;74.47
21401;BME280;18038;50.166;18.908;2024-01-30T02:08:10;99712.75;;;0.41;74.24
21401;BME280;18038;50.166;18.908;2024-01-30T02:11:57;99711.06;;;0.40;74.20
21401;BME280;18038;50.166;18.908;2024-01-30T02:15:49;99714.47;;;0.42;74.29
21401;BME280;18038;50.166;18.908;2024-01-30T02:19:36;99701.56;;;0.37;74.36
21401;BME280;18038;50.166;18.908;2024-01-30T02:23:26;99706.88;;;0.36;74.18
21401;BME280;18038;50.166;18.908;2024-01-30T02:27:14;99713.84;;;0.37;74.16
21401;BME280;18038;50.166;18.908;2024-01-30T02:31:00;99698.34;;;0.32;74.21
21401;BME280;18038;50.166;18.908;2024-01-30T02:34:47;99710.59;;;0.31;74.12
21401;BME280;18038;50.166;18.908;2024-01-30T02:38:36;99700.03;;;0.33;74.16
21401;BME280;18038;50.166;18.908;2024-01-30T02:42:24;99696.94;;;0.25;74.35
21401;BME280;18038;50.166;18.908;2024-01-30T02:46:10;99705.75;;;0.24;74.55
21401;BME280;18038;50.166;18.908;2024-01-30T02:49:57;99699.50;;;0.26;74.59
21401;BME280;18038;50.166;18.908;2024-01-30T02:53:46;99705.28;;;0.33;74.32
21401;BME280;18038;50.166;18.908;2024-01-30T02:57:33;99702.81;;;0.30;74.52
21401;BME280;18038;50.166;18.908;2024-01-30T03:01:19;99705.03;;;0.20;74.87
21401;BME280;18038;50.166;18.908;2024-01-30T03:05:07;99699.78;;;0.20;74.79
21401;BME280;18038;50.166;18.908;2024-01-30T03:08:57;99703.28;;;0.21;74.90
21401;BME280;18038;50.166;18.908;2024-01-30T03:12:45;99703.34;;;0.19;74.91
21401;BME280;18038;50.166;18.908;2024-01-30T03:16:31;99701.66;;;0.18;74.81
21401;BME280;18038;50.166;18.908;2024-01-30T03:20:18;99706.19;;;0.15;75.09
21401;BME280;18038;50.166;18.908;2024-01-30T03:24:08;99690.56;;;0.13;74.80
21401;BME280;18038;50.166;18.908;2024-01-30T03:27:55;99698.34;;;0.15;75.01
21401;BME280;18038;50.166;18.908;2024-01-30T03:31:41;99696.50;;;0.17;74.71
21401;BME280;18038;50.166;18.908;2024-01-30T03:35:28;99691.47;;;0.12;75.00
21401;BME280;18038;50.166;18.908;2024-01-30T03:39:17;99687.09;;;0.13;74.86
21401;BME280;18038;50.166;18.908;2024-01-30T03:43:04;99688.94;;;0.10;74.78
21401;BME280;18038;50.166;18.908;2024-01-30T03:46:50;99682.00;;;0.09;74.87
21401;BME280;18038;50.166;18.908;2024-01-30T03:50:38;99692.41;;;0.11;74.79
21401;BME280;18038;50.166;18.908;2024-01-30T03:54:27;99697.59;;;0.13;74.75
21401;BME280;18038;50.166;18.908;2024-01-30T03:58:14;99695.72;;;0.15;74.42
21401;BME280;18038;50.166;18.908;2024-01-30T04:02:00;99693.97;;;0.15;74.20
21401;BME280;18038;50.166;18.908;2024-01-30T04:05:47;99693.97;;;0.15;74.17
21401;BME280;18038;50.166;18.908;2024-01-30T04:09:36;99695.72;;;0.15;74.25
21401;BME280;18038;50.166;18.908;2024-01-30T04:13:25;99687.84;;;0.15;74.13
21401;BME280;18038;50.166;18.908;2024-01-30T04:17:12;99689.78;;;0.11;74.44
21401;BME280;18038;50.166;18.908;2024-01-30T04:20:59;99687.22;;;0.09;74.38
21401;BME280;18038;50.166;18.908;2024-01-30T04:24:49;99682.09;;;0.08;74.57
21401;BME280;18038;50.166;18.908;2024-01-30T04:28:36;99685.50;;;0.10;74.36
21401;BME280;18038;50.166;18.908;2024-01-30T04:32:22;99682.00;;;0.09;74.43
21401;BME280;18038;50.166;18.908;2024-01-30T04:36:09;99679.63;;;0.05;74.78
21401;BME280;18038;50.166;18.908;2024-01-30T04:39:58;99677.28;;;-0.01;74.57
21401;BME280;18038;50.166;18.908;2024-01-30T04:43:46;99691.09;;;0.02;74.64
21401;BME280;18038;50.166;18.908;2024-01-30T04:47:32;99695.19;;;0.08;74.18
21401;BME280;18038;50.166;18.908;2024-01-30T04:51:19;99687.38;;;0.06;74.50
21401;BME280;18038;50.166;18.908;2024-01-30T04:55:08;99690.78;;;0.08;74.33
21401;BME280;18038;50.166;18.908;2024-01-30T04:58:55;99691.94;;;0.03;74.19
21401;BME280;18038;50.166;18.908;2024-01-30T05:02:41;99680.69;;;0.01;74.00
21401;BME280;18038;50.166;18.908;2024-01-30T05:06:29;99676.38;;;-0.00;73.89
21401;BME280;18038;50.166;18.908;2024-01-30T05:10:18;99676.38;;;-0.00;73.68
21401;BME280;18038;50.166;18.908;2024-01-30T05:14:07;99685.03;;;0.02;73.74
21401;BME280;18038;50.166;18.908;2024-01-30T05:17:54;99678.84;;;0.03;73.29
21401;BME280;18038;50.166;18.908;2024-01-30T05:21:41;99672.66;;;0.04;73.34
21401;BME280;18038;50.166;18.908;2024-01-30T05:25:31;99683.25;;;0.02;73.18
21401;BME280;18038;50.166;18.908;2024-01-30T05:29:18;99680.63;;;0.02;73.41
21401;BME280;18038;50.166;18.908;2024-01-30T05:33:04;99685.78;;;0.04;73.24
21401;BME280;18038;50.166;18.908;2024-01-30T05:36:52;99695.97;;;0.10;73.12
21401;BME280;18038;50.166;18.908;2024-01-30T05:40:41;99690.94;;;0.05;73.07
21401;BME280;18038;50.166;18.908;2024-01-30T05:44:28;99689.16;;;0.06;72.99
21401;BME280;18038;50.166;18.908;2024-01-30T05:48:14;99692.09;;;-0.00;72.68
21401;BME280;18038;50.166;18.908;2024-01-30T05:52:02;99690.56;;;-0.04;72.91
21401;BME280;18038;50.166;18.908;2024-01-30T05:55:53;99694.16;;;-0.07;72.99
21401;BME280;18038;50.166;18.908;2024-01-30T05:59:40;99699.19;;;-0.02;72.90
21401;BME280;18038;50.166;18.908;2024-01-30T06:03:28;99695.78;;;-0.04;72.87
21401;BME280;18038;50.166;18.908;2024-01-30T06:07:16;99689.03;;;-0.08;72.79
21401;BME280;18038;50.166;18.908;2024-01-30T06:11:10;99688.31;;;-0.12;72.85
21401;BME280;18038;50.166;18.908;2024-01-30T06:14:57;99684.84;;;-0.13;72.90
21401;BME280;18038;50.166;18.908;2024-01-30T06:18:44;99688.09;;;-0.07;72.79
21401;BME280;18038;50.166;18.908;2024-01-30T06:22:31;99694.09;;;-0.05;72.66
21401;BME280;18038;50.166;18.908;2024-01-30T06:26:20;99684.47;;;-0.05;72.97
21401;BME280;18038;50.166;18.908;2024-01-30T06:30:07;99694.25;;;-0.08;73.15
21401;BME280;18038;50.166;18.908;2024-01-30T06:33:55;99695.09;;;-0.08;72.98
21401;BME280;18038;50.166;18.908;2024-01-30T06:37:42;99694.25;;;-0.08;73.00
21401;BME280;18038;50.166;18.908;2024-01-30T06:41:31;99688.72;;;-0.02;72.98
21401;BME280;18038;50.166;18.908;2024-01-30T06:45:18;99701.03;;;-0.04;72.71
21401;BME280;18038;50.166;18.908;2024-01-30T06:49:04;99689.56;;;-0.02;72.76
21401;BME280;18038;50.166;18.908;2024-01-30T06:52:52;99693.94;;;-0.02;72.75
21401;BME280;18038;50.166;18.908;2024-01-30T06:56:41;99700.59;;;0.05;72.72
21401;BME280;18038;50.166;18.908;2024-01-30T07:00:28;99696.88;;;0.09;72.52
21401;BME280;18038;50.166;18.908;2024-01-30T07:04:14;99693.19;;;0.13;72.26
21401;BME280;18038;50.166;18.908;2024-01-30T07:08:01;99694.72;;;0.17;72.24
21401;BME280;18038;50.166;18.908;2024-01-30T07:11:51;99697.94;;;0.22;71.98
21401;BME280;18038;50.166;18.908;2024-01-30T07:15:40;99696.03;;;0.26;71.84
21401;BME280;18038;50.166;18.908;2024-01-30T07:19:26;99704.09;;;0.39;72.04
21401;BME280;18038;50.166;18.908;2024-01-30T07:23:13;99703.41;;;0.52;71.48
21401;BME280;18038;50.166;18.908;2024-01-30T07:27:03;99705.47;;;0.63;70.96
21401;BME280;18038;50.166;18.908;2024-01-30T07:30:51;99704.88;;;1.07;69.86
21401;BME280;18038;50.166;18.908;2024-01-30T07:34:37;99706.84;;;1.67;67.25
21401;BME280;18038;50.166;18.908;2024-01-30T07:38:38;99707.78;;;2.57;64.30
21401;BME280;18038;50.166;18.908;2024-01-30T07:42:27;99702.13;;;3.06;62.81
21401;BME280;18038;50.166;18.908;2024-01-30T07:46:14;99700.72;;;3.00;61.85
21401;BME280;18038;50.166;18.908;2024-01-30T07:50:00;99713.59;;;3.33;61.01
21401;BME280;18038;50.166;18.908;2024-01-30T07:53:48;99706.91;;;3.69;60.15
21401;BME280;18038;50.166;18.908;2024-01-30T07:57:38;99709.31;;;4.26;58.54
21401;BME280;18038;50.166;18.908;2024-01-30T08:01:26;99712.75;;;5.05;56.56
21401;BME280;18038;50.166;18.908;2024-01-30T08:05:12;99713.97;;;5.62;53.46
21401;BME280;18038;50.166;18.908;2024-01-30T08:09:01;99713.28;;;5.84;52.67
21401;BME280;18038;50.166;18.908;2024-01-30T08:12:51;99712.00;;;6.36;51.66
21401;BME280;18038;50.166;18.908;2024-01-30T08:16:38;99716.66;;;6.68;50.01
21401;BME280;18038;50.166;18.908;2024-01-30T08:20:24;99720.81;;;7.06;48.97
21401;BME280;18038;50.166;18.908;2024-01-30T08:24:12;99719.75;;;7.20;48.74
21401;BME280;18038;50.166;18.908;2024-01-30T08:28:01;99723.81;;;7.57;47.98
21401;BME280;18038;50.166;18.908;2024-01-30T08:31:51;99723.84;;;7.90;46.53
21401;BME280;18038;50.166;18.908;2024-01-30T08:35:37;99718.88;;;7.64;46.79
21401;BME280;18038;50.166;18.908;2024-01-30T08:39:25;99723.47;;;7.51;47.10
21401;BME280;18038;50.166;18.908;2024-01-30T08:43:14;99719.84;;;8.28;45.56
21401;BME280;18038;50.166;18.908;2024-01-30T08:47:01;99715.97;;;8.53;45.66
21401;BME280;18038;50.166;18.908;2024-01-30T08:50:47;99727.31;;;8.76;44.10
21401;BME280;18038;50.166;18.908;2024-01-30T08:54:34;99734.22;;;8.67;44.06
21401;BME280;18038;50.166;18.908;2024-01-30T08:58:23;99725.78;;;8.83;44.57
21401;BME280;18038;50.166;18.908;2024-01-30T09:02:11;99723.50;;;9.20;43.77
21401;BME280;18038;50.166;18.908;2024-01-30T09:05:57;99729.09;;;9.57;42.79
21401;BME280;18038;50.166;18.908;2024-01-30T09:09:44;99715.28;;;9.33;42.66
21401;BME280;18038;50.166;18.908;2024-01-30T09:13:33;99717.16;;;9.42;42.66
21401;BME280;18038;50.166;18.908;2024-01-30T09:17:21;99721.47;;;10.03;41.95
21401;BME280;18038;50.166;18.908;2024-01-30T09:21:07;99720.03;;;9.99;41.73
21401;BME280;18038;50.166;18.908;2024-01-30T09:24:54;99720.59;;;9.83;41.08
21401;BME280;18038;50.166;18.908;2024-01-30T09:28:43;99714.44;;;10.41;39.76
21401;BME280;18038;50.166;18.908;2024-01-30T09:32:30;99719.78;;;10.51;40.45
21401;BME280;18038;50.166;18.908;2024-01-30T09:36:16;99713.88;;;9.79;40.71
21401;BME280;18038;50.166;18.908;2024-01-30T09:40:04;99716.38;;;9.80;41.14
21401;BME280;18038;50.166;18.908;2024-01-30T09:43:59;99721.44;;;9.93;40.29
21401;BME280;18038;50.166;18.908;2024-01-30T09:47:48;99713.72;;;9.71;40.83
21401;BME280;18038;50.166;18.908;2024-01-30T09:51:36;99706.00;;;9.77;40.58
21401;BME280;18038;50.166;18.908;2024-01-30T09:55:24;99709.28;;;10.30;39.33
21401;BME280;18038;50.166;18.908;2024-01-30T09:59:13;99708.31;;;10.21;39.66
21401;BME280;18038;50.166;18.908;2024-01-30T10:03:00;99695.41;;;10.07;39.85
21401;BME280;18038;50.166;18.908;2024-01-30T10:06:47;99695.78;;;10.51;39.42
21401;BME280;18038;50.166;18.908;2024-01-30T10:10:36;99701.81;;;10.72;38.65
21401;BME280;18038;50.166;18.908;2024-01-30T10:14:25;99686.34;;;10.76;38.36
21401;BME280;18038;50.166;18.908;2024-01-30T10:18:12;99689.06;;;10.46;39.60
21401;BME280;18038;50.166;18.908;2024-01-30T10:22:00;99684.56;;;10.76;38.64
21401;BME280;18038;50.166;18.908;2024-01-30T10:25:48;99681.41;;;10.05;39.87
21401;BME280;18038;50.166;18.908;2024-01-30T10:29:39;99681.25;;;10.06;39.89
21401;BME280;18038;50.166;18.908;2024-01-30T10:33:26;99672.44;;;10.15;39.42
21401;BME280;18038;50.166;18.908;2024-01-30T10:37:15;99667.22;;;9.65;40.23
21401;BME280;18038;50.166;18.908;2024-01-30T10:41:05;99668.88;;;9.56;40.44
21401;BME280;18038;50.166;18.908;2024-01-30T10:45:06;99659.25;;;9.65;40.41
21401;BME280;18038;50.166;18.908;2024-01-30T10:48:57;99663.56;;;9.56;40.02
21401;BME280;18038;50.166;18.908;2024-01-30T10:52:46;99644.34;;;9.43;40.22
21401;BME280;18038;50.166;18.908;2024-01-30T10:56:35;99650.78;;;9.31;41.62
21401;BME280;18038;50.166;18.908;2024-01-30T11:00:25;99643.63;;;9.01;41.83
21401;BME280;18038;50.166;18.908;2024-01-30T11:04:13;99645.66;;;9.08;41.69
21401;BME280;18038;50.166;18.908;2024-01-30T11:08:10;99635.41;;;9.44;41.11
21401;BME280;18038;50.166;18.908;2024-01-30T11:11:59;99637.44;;;9.21;40.96
21401;BME280;18038;50.166;18.908;2024-01-30T11:15:50;99634.28;;;9.37;41.66
21401;BME280;18038;50.166;18.908;2024-01-30T11:19:38;99633.75;;;9.53;41.34
21401;BME280;18038;50.166;18.908;2024-01-30T11:23:28;99634.78;;;9.21;41.86
21401;BME280;18038;50.166;18.908;2024-01-30T11:27:16;99630.66;;;9.48;41.51
21401;BME280;18038;50.166;18.908;2024-01-30T11:31:07;99630.38;;;9.41;41.68
21401;BME280;18038;50.166;18.908;2024-01-30T11:34:55;99620.25;;;9.35;41.39
21401;BME280;18038;50.166;18.908;2024-01-30T11:38:43;99626.69;;;9.23;42.10
21401;BME280;18038;50.166;18.908;2024-01-30T11:42:30;99616.25;;;9.89;41.61
21401;BME280;18038;50.166;18.908;2024-01-30T11:46:25;99615.81;;;9.65;41.56
21401;BME280;18038;50.166;18.908;2024-01-30T11:50:13;99607.69;;;9.56;41.07
21401;BME280;18038;50.166;18.908;2024-01-30T11:53:59;99610.03;;;9.21;42.70
21401;BME280;18038;50.166;18.908;2024-01-30T11:57:47;99601.09;;;9.51;42.68
21401;BME280;18038;50.166;18.908;2024-01-30T12:01:38;99596.91;;;9.97;41.60
21401;BME280;18038;50.166;18.908;2024-01-30T12:05:26;99596.66;;;9.71;42.22
21401;BME280;18038;50.166;18.908;2024-01-30T12:09:19;99580.69;;;9.61;42.84
21401;BME280;18038;50.166;18.908;2024-01-30T12:13:06;99578.94;;;9.11;43.39
21401;BME280;18038;50.166;18.908;2024-01-30T12:16:56;99570.84;;;9.32;43.84
21401;BME280;18038;50.166;18.908;2024-01-30T12:20:45;99564.97;;;9.48;43.27
21401;BME280;18038;50.166;18.908;2024-01-30T12:24:43;99566.63;;;9.10;44.06
21401;BME280;18038;50.166;18.908;2024-01-30T12:28:32;99563.97;;;9.10;44.03
21401;BME280;18038;50.166;18.908;2024-01-30T12:32:22;99551.22;;;9.04;44.08
21401;BME280;18038;50.166;18.908;2024-01-30T12:36:11;99545.22;;;9.22;44.21
21401;BME280;18038;50.166;18.908;2024-01-30T12:39:57;99556.84;;;9.21;44.26
21401;BME280;18038;50.166;18.908;2024-01-30T12:43:47;99552.06;;;9.14;44.52
21401;BME280;18038;50.166;18.908;2024-01-30T12:47:37;99546.13;;;9.01;44.81
21401;BME280;18038;50.166;18.908;2024-01-30T12:51:24;99537.97;;;8.74;45.09
21401;BME280;18038;50.166;18.908;2024-01-30T12:55:11;99542.50;;;8.52;45.25
21401;BME280;18038;50.166;18.908;2024-01-30T12:58:58;99534.94;;;8.47;46.04
21401;BME280;18038;50.166;18.908;2024-01-30T13:02:47;99540.41;;;8.46;46.14
21401;BME280;18038;50.166;18.908;2024-01-30T13:06:35;99536.97;;;8.03;46.95
21401;BME280;18038;50.166;18.908;2024-01-30T13:10:22;99532.66;;;8.33;47.51
21401;BME280;18038;50.166;18.908;2024-01-30T13:14:09;99537.53;;;8.38;46.49
21401;BME280;18038;50.166;18.908;2024-01-30T13:17:58;99543.94;;;8.04;47.23
21401;BME280;18038;50.166;18.908;2024-01-30T13:21:45;99533.06;;;8.08;47.40
21401;BME280;18038;50.166;18.908;2024-01-30T13:25:31;99535.59;;;8.09;47.90
21401;BME280;18038;50.166;18.908;2024-01-30T13:29:18;99539.97;;;8.41;48.28
21401;BME280;18038;50.166;18.908;2024-01-30T13:33:08;99534.66;;;8.41;47.82
21401;BME280;18038;50.166;18.908;2024-01-30T13:36:55;99535.47;;;8.41;48.01
21401;BME280;18038;50.166;18.908;2024-01-30T13:40:42;99538.47;;;8.27;48.62
21401;BME280;18038;50.166;18.908;2024-01-30T13:44:30;99531.06;;;8.00;49.17
21401;BME280;18038;50.166;18.908;2024-01-30T13:48:19;99528.16;;;7.61;49.57
21401;BME280;18038;50.166;18.908;2024-01-30T13:52:07;99524.78;;;7.38;50.59
21401;BME280;18038;50.166;18.908;2024-01-30T13:56:01;99521.47;;;7.25;51.71
21401;BME280;18038;50.166;18.908;2024-01-30T13:59:49;99506.66;;;7.11;51.50
21401;BME280;18038;50.166;18.908;2024-01-30T14:03:40;99516.66;;;7.07;51.97
21401;BME280;18038;50.166;18.908;2024-01-30T14:07:29;99519.59;;;6.93;52.63
21401;BME280;18038;50.166;18.908;2024-01-30T14:11:17;99520.78;;;6.89;52.86
21401;BME280;18038;50.166;18.908;2024-01-30T14:15:06;99518.28;;;6.87;53.17
21401;BME280;18038;50.166;18.908;2024-01-30T14:19:01;99517.69;;;6.84;53.19
21401;BME280;18038;50.166;18.908;2024-01-30T14:22:48;99520.44;;;6.93;53.44
21401;BME280;18038;50.166;18.908;2024-01-30T14:26:36;99516.78;;;7.06;53.25
21401;BME280;18038;50.166;18.908;2024-01-30T14:30:24;99517.88;;;7.03;53.01
21401;BME280;18038;50.166;18.908;2024-01-30T14:34:13;99518.63;;;6.94;52.76
21401;BME280;18038;50.166;18.908;2024-01-30T14:38:00;99516.13;;;6.81;52.79
21401;BME280;18038;50.166;18.908;2024-01-30T14:41:47;99514.56;;;6.67;53.35
21401;BME280;18038;50.166;18.908;2024-01-30T14:45:34;99513.38;;;6.60;53.05
21401;BME280;18038;50.166;18.908;2024-01-30T14:49:25;99510.38;;;6.65;53.24
21401;BME280;18038;50.166;18.908;2024-01-30T14:53:12;99514.34;;;6.37;53.47
21401;BME280;18038;50.166;18.908;2024-01-30T14:56:58;99511.47;;;6.17;54.16
21401;BME280;18038;50.166;18.908;2024-01-30T15:00:46;99496.78;;;6.02;54.08
21401;BME280;18038;50.166;18.908;2024-01-30T15:04:36;99505.69;;;6.01;54.71
21401;BME280;18038;50.166;18.908;2024-01-30T15:08:23;99507.47;;;5.89;55.15
21401;BME280;18038;50.166;18.908;2024-01-30T15:12:10;99504.56;;;5.81;55.16
21401;BME280;18038;50.166;18.908;2024-01-30T15:15:58;99500.09;;;5.70;55.52
21401;BME280;18038;50.166;18.908;2024-01-30T15:19:47;99498.03;;;5.62;55.34
21401;BME280;18038;50.166;18.908;2024-01-30T15:23:36;99497.09;;;5.52;56.03
21401;BME280;18038;50.166;18.908;2024-01-30T15:27:22;99500.28;;;5.45;56.13
21401;BME280;18038;50.166;18.908;2024-01-30T15:31:10;99499.63;;;5.30;56.17
21401;BME280;18038;50.166;18.908;2024-01-30T15:35:00;99492.00;;;5.14;56.54
21401;BME280;18038;50.166;18.908;2024-01-30T15:38:47;99496.91;;;5.07;57.01
21401;BME280;18038;50.166;18.908;2024-01-30T15:42:33;99494.69;;;5.01;57.33
21401;BME280;18038;50.166;18.908;2024-01-30T15:46:21;99489.13;;;4.93;57.35
21401;BME280;18038;50.166;18.908;2024-01-30T15:50:11;99499.41;;;4.85;57.87
21401;BME280;18038;50.166;18.908;2024-01-30T15:53:58;99500.09;;;4.76;57.93
21401;BME280;18038;50.166;18.908;2024-01-30T15:57:44;99511.88;;;4.70;58.14
21401;BME280;18038;50.166;18.908;2024-01-30T16:01:31;99505.59;;;4.60;58.31
21401;BME280;18038;50.166;18.908;2024-01-30T16:05:21;99505.94;;;4.55;58.60
21401;BME280;18038;50.166;18.908;2024-01-30T16:09:08;99502.25;;;4.45;58.92
21401;BME280;18038;50.166;18.908;2024-01-30T16:12:55;99512.06;;;4.43;58.50
21401;BME280;18038;50.166;18.908;2024-01-30T16:16:42;99512.59;;;4.35;58.61
21401;BME280;18038;50.166;18.908;2024-01-30T16:20:31;99506.19;;;4.26;58.96
21401;BME280;18038;50.166;18.908;2024-01-30T16:24:19;99504.72;;;4.22;58.74
21401;BME280;18038;50.166;18.908;2024-01-30T16:28:05;99506.09;;;4.15;59.29
21401;BME280;18038;50.166;18.908;2024-01-30T16:31:53;99507.78;;;4.03;59.58
21401;BME280;18038;50.166;18.908;2024-01-30T16:35:42;99506.00;;;3.91;59.70
21401;BME280;18038;50.166;18.908;2024-01-30T16:39:29;99503.16;;;3.81;60.11
21401;BME280;18038;50.166;18.908;2024-01-30T16:43:15;99506.44;;;3.72;59.42
21401;BME280;18038;50.166;18.908;2024-01-30T16:47:03;99503.25;;;3.67;59.22
21401;BME280;18038;50.166;18.908;2024-01-30T16:50:52;99492.59;;;3.56;58.92
21401;BME280;18038;50.166;18.908;2024-01-30T16:54:40;99503.13;;;3.56;58.85
21401;BME280;18038;50.166;18.908;2024-01-30T16:58:27;99510.09;;;3.57;58.92
21401;BME280;18038;50.166;18.908;2024-01-30T17:02:14;99496.38;;;3.52;58.96
21401;BME280;18038;50.166;18.908;2024-01-30T17:06:04;99503.97;;;3.43;58.81
21401;BME280;18038;50.166;18.908;2024-01-30T17:09:59;99502.03;;;3.46;58.77
21401;BME280;18038;50.166;18.908;2024-01-30T17:13:45;99502.47;;;3.39;59.22
21401;BME280;18038;50.166;18.908;2024-01-30T17:17:32;99497.41;;;3.36;59.17
21401;BME280;18038;50.166;18.908;2024-01-30T17:21:22;99494.22;;;3.31;59.44
21401;BME280;18038;50.166;18.908;2024-01-30T17:25:12;99490.75;;;3.31;59.48
21401;BME280;18038;50.166;18.908;2024-01-30T17:28:59;99493.59;;;3.28;59.76
21401;BME280;18038;50.166;18.908;2024-01-30T17:32:46;99477.78;;;3.15;59.54
21401;BME280;18038;50.166;18.908;2024-01-30T17:36:36;99483.03;;;3.15;59.80
21401;BME280;18038;50.166;18.908;2024-01-30T17:40:23;99489.56;;;3.09;60.28
21401;BME280;18038;50.166;18.908;2024-01-30T17:44:10;99490.69;;;3.05;60.52
21401;BME280;18038;50.166;18.908;2024-01-30T17:47:58;99489.22;;;3.01;60.71
21401;BME280;18038;50.166;18.908;2024-01-30T17:51:47;99483.28;;;2.97;61.05
21401;BME280;18038;50.166;18.908;2024-01-30T17:55:34;99489.38;;;2.98;60.87
21401;BME280;18038;50.166;18.908;2024-01-30T17:59:20;99492.09;;;2.84;61.33
21401;BME280;18038;50.166;18.908;2024-01-30T18:03:07;99490.91;;;2.75;61.66
21401;BME280;18038;50.166;18.908;2024-01-30T18:06:57;99499.91;;;2.71;61.92
21401;BME280;18038;50.166;18.908;2024-01-30T18:10:44;99494.00;;;2.67;62.08
21401;BME280;18038;50.166;18.908;2024-01-30T18:14:31;99497.88;;;2.62;62.56
21401;BME280;18038;50.166;18.908;2024-01-30T18:18:19;99499.00;;;2.58;62.26
21401;BME280;18038;50.166;18.908;2024-01-30T18:22:11;99496.56;;;2.54;62.64
21401;BME280;18038;50.166;18.908;2024-01-30T18:25:58;99501.47;;;2.46;62.43
21401;BME280;18038;50.166;18.908;2024-01-30T18:29:45;99494.72;;;2.42;62.84
21401;BME280;18038;50.166;18.908;2024-01-30T18:33:33;99497.72;;;2.36;62.92
21401;BME280;18038;50.166;18.908;2024-01-30T18:37:22;99494.66;;;2.29;63.08
21401;BME280;18038;50.166;18.908;2024-01-30T18:41:10;99484.41;;;2.25;63.24
21401;BME280;18038;50.166;18.908;2024-01-30T18:45:01;99484.69;;;2.20;63.14
21401;BME280;18038;50.166;18.908;2024-01-30T18:48:56;99487.44;;;2.19;63.35
21401;BME280;18038;50.166;18.908;2024-01-30T18:52:45;99492.22;;;2.12;63.42
21401;BME280;18038;50.166;18.908;2024-01-30T18:56:37;99481.78;;;2.10;63.74
21401;BME280;18038;50.166;18.908;2024-01-30T19:00:23;99490.16;;;2.03;63.75
21401;BME280;18038;50.166;18.908;2024-01-30T19:04:13;99484.91;;;2.03;63.83
21401;BME280;18038;50.166;18.908;2024-01-30T19:08:03;99491.94;;;2.02;63.74
21401;BME280;18038;50.166;18.908;2024-01-30T19:12:00;99489.75;;;1.95;63.80
21401;BME280;18038;50.166;18.908;2024-01-30T19:15:46;99497.84;;;1.92;63.71
21401;BME280;18038;50.166;18.908;2024-01-30T19:19:34;99496.03;;;1.92;63.72
21401;BME280;18038;50.166;18.908;2024-01-30T19:23:23;99501.59;;;1.87;63.82
21401;BME280;18038;50.166;18.908;2024-01-30T19:27:10;99495.78;;;1.82;64.02
21401;BME280;18038;50.166;18.908;2024-01-30T19:30:59;99494.53;;;1.74;63.79
21401;BME280;18038;50.166;18.908;2024-01-30T19:34:49;99497.28;;;1.72;63.93
21401;BME280;18038;50.166;18.908;2024-01-30T19:38:41;99500.72;;;1.73;63.66
21401;BME280;18038;50.166;18.908;2024-01-30T19:42:31;99493.22;;;1.66;63.66
21401;BME280;18038;50.166;18.908;2024-01-30T19:46:23;99501.19;;;1.65;63.76
21401;BME280;18038;50.166;18.908;2024-01-30T19:50:10;99496.88;;;1.64;63.38
21401;BME280;18038;50.166;18.908;2024-01-30T19:53:59;99509.19;;;1.63;63.17
21401;BME280;18038;50.166;18.908;2024-01-30T19:57:46;99510.28;;;1.59;63.17
21401;BME280;18038;50.166;18.908;2024-01-30T20:01:33;99511.97;;;1.60;63.18
21401;BME280;18038;50.166;18.908;2024-01-30T20:05:21;99494.53;;;1.59;63.13
21401;BME280;18038;50.166;18.908;2024-01-30T20:09:10;99503.81;;;1.51;63.48